メインページ
METAR-TAF:

METAR-TAF

空港 :

コフスハーバー, オーストラリア

緯度: 30-19-12S, 経度: 153-07-00E, 海抜: 5m

現時点の気象観測

当レポートは23分前の00:00(UTC)に作成
の風 14kt
気温 19°C
湿度 46%
気圧 1027 hPa
視程10km以上

METAR: YCFS 210000Z AUTO 19014KT 9999 // NCD 19/07 Q1027

時間: 10:23 (00:23 UTC)

予報

当レポートは1時間6分前の23:17(UTC)に作成
予報は21日の 00時(UTC)から 21日の 24時(UTC)まで有効
南西の風 10kt
視程10km以上
高度3000ftの雲はほとんどない
21日の 0100時(UTC)から
南/南東の風 15kt、最大25ktの突風を伴う
視程10km以上
高度4000ftの雲はほとんどない
21日の 06時(UTC)から 21日の 08時(UTC)まで徐々に
の風 5kt
視程10km以上
高度2000ftの雲はほとんどない

TAF: YCFS 202317Z 2100/2124 23010KT 9999 FEW030 FM210100 16015G25KT 9999 FEW040 BECMG 2106/2108 18005KT 9999 FEW020

4,000以上の空港の気象観測と天気予報(METAR報とTAF報)

利用可能な観測所は地図上に黄色い丸と赤い丸で示す。

丸の上にカーソルを重ねると観測所名を参照できる。

次にクリックすると気象観測と天気予報を参照できる。

マップの切り替え:黒色「×」印の緑ボタンをクリックして拡大、「-」印の緑ボタンをクリックして縮小、緑色の三角印をクリックして隣りの地図に切り替え


METAR-TAF: